createdAt,value
2019-03-13T00:00:30.389Z,5.20
2019-03-13T00:03:03.152Z,5.30
2019-03-13T00:05:34.078Z,5.30
2019-03-13T00:08:05.519Z,5.30
2019-03-13T00:10:36.599Z,5.30
2019-03-13T00:13:07.679Z,5.30
2019-03-13T00:15:38.687Z,5.30
2019-03-13T00:18:10.167Z,5.40
2019-03-13T00:20:41.212Z,5.30
2019-03-13T00:23:12.314Z,5.30
2019-03-13T00:25:43.217Z,5.20
2019-03-13T00:28:14.278Z,5.30
2019-03-13T00:30:46.060Z,5.20
2019-03-13T00:33:17.187Z,5.30
2019-03-13T00:35:49.307Z,5.40
2019-03-13T00:38:21.060Z,5.50
2019-03-13T00:40:52.714Z,5.60
2019-03-13T00:43:24.127Z,5.60
2019-03-13T00:45:55.233Z,5.50
2019-03-13T00:48:26.301Z,5.60
2019-03-13T00:50:57.386Z,5.50
2019-03-13T00:53:28.431Z,5.60
2019-03-13T00:55:59.454Z,5.50
2019-03-13T00:58:30.812Z,5.50
2019-03-13T01:01:19.920Z,5.50
2019-03-13T01:04:22.429Z,5.40
2019-03-13T01:06:57.298Z,5.40
2019-03-13T01:09:28.300Z,5.30
2019-03-13T01:11:59.329Z,5.40
2019-03-13T01:14:30.387Z,5.30
2019-03-13T01:17:01.857Z,5.20
2019-03-13T01:19:32.950Z,5.30
2019-03-13T01:22:04.135Z,5.30
2019-03-13T01:24:35.512Z,5.30
2019-03-13T01:27:06.932Z,5.40
2019-03-13T01:29:38.274Z,5.30
2019-03-13T01:32:26.451Z,5.30
2019-03-13T01:35:16.814Z,5.30
2019-03-13T01:37:47.839Z,5.30
2019-03-13T01:40:20.619Z,5.30
2019-03-13T01:43:03.424Z,5.30
2019-03-13T01:45:34.871Z,5.30
2019-03-13T01:48:05.955Z,5.40
2019-03-13T01:50:37.369Z,5.40
2019-03-13T01:53:08.517Z,5.50
2019-03-13T01:55:39.577Z,5.40
2019-03-13T01:58:10.687Z,5.40
2019-03-13T02:00:42.051Z,5.40
2019-03-13T02:03:13.072Z,5.30
2019-03-13T02:05:44.091Z,5.40
2019-03-13T02:08:15.106Z,5.30
2019-03-13T02:10:46.515Z,5.30
2019-03-13T02:13:17.450Z,5.30
2019-03-13T02:15:48.803Z,5.30
2019-03-13T02:18:20.159Z,5.40
2019-03-13T02:20:51.519Z,5.30
2019-03-13T02:23:22.611Z,5.30
2019-03-13T02:25:53.762Z,5.30
2019-03-13T02:28:24.853Z,5.30
2019-03-13T02:30:56.686Z,5.20
2019-03-13T02:33:28.171Z,5.20
2019-03-13T02:35:59.225Z,5.30
2019-03-13T02:38:30.346Z,5.40
2019-03-13T02:41:01.441Z,5.40
2019-03-13T02:43:32.537Z,5.30
2019-03-13T02:46:03.938Z,5.30
2019-03-13T02:48:34.991Z,5.30
2019-03-13T02:51:06.102Z,5.30
2019-03-13T02:53:37.227Z,5.30
2019-03-13T02:56:08.314Z,5.20
2019-03-13T02:58:39.317Z,5.30
2019-03-13T03:01:39.063Z,5.40
2019-03-13T03:04:11.259Z,5.40
2019-03-13T03:06:42.676Z,5.40
2019-03-13T03:09:14.080Z,5.40
2019-03-13T03:11:45.224Z,5.40
2019-03-13T03:14:16.251Z,5.30
2019-03-13T03:16:47.357Z,5.40
2019-03-13T03:19:18.832Z,5.40
2019-03-13T03:21:49.918Z,5.40
2019-03-13T03:24:21.023Z,5.40
2019-03-13T03:26:52.326Z,5.40
2019-03-13T03:29:23.372Z,5.40
2019-03-13T03:31:54.506Z,5.40
2019-03-13T03:34:27.290Z,5.40
2019-03-13T03:36:58.329Z,5.40
2019-03-13T03:39:29.373Z,5.40
2019-03-13T03:42:00.646Z,5.50
2019-03-13T03:44:32.364Z,5.40
2019-03-13T03:47:03.475Z,5.50
2019-03-13T03:49:34.479Z,5.40
2019-03-13T03:52:05.956Z,5.40
2019-03-13T03:54:37.070Z,5.40
2019-03-13T03:57:08.596Z,5.50
2019-03-13T03:59:40.158Z,5.60
2019-03-13T04:02:11.637Z,5.60
2019-03-13T04:04:43.073Z,5.60
2019-03-13T04:07:14.532Z,5.60
2019-03-13T04:09:45.878Z,5.60
2019-03-13T04:12:18.465Z,5.60
2019-03-13T04:14:49.489Z,5.70
2019-03-13T04:17:32.584Z,5.70
2019-03-13T04:20:03.773Z,5.70
2019-03-13T04:22:34.907Z,5.70
2019-03-13T04:25:15.248Z,5.70
2019-03-13T04:27:46.645Z,5.70
2019-03-13T04:30:17.723Z,5.70
2019-03-13T04:32:51.288Z,5.70
2019-03-13T04:35:22.777Z,5.80
2019-03-13T04:37:53.880Z,5.80
2019-03-13T04:40:25.673Z,5.80
2019-03-13T04:42:56.800Z,5.80
2019-03-13T04:45:27.938Z,5.80
2019-03-13T04:47:59.004Z,5.80
2019-03-13T04:50:30.062Z,5.80
2019-03-13T04:53:01.768Z,5.80
2019-03-13T04:55:32.880Z,5.80
2019-03-13T04:58:04.266Z,5.80
2019-03-13T05:00:35.564Z,5.80
2019-03-13T05:03:06.667Z,5.80
2019-03-13T05:05:42.601Z,5.80
2019-03-13T05:08:26.924Z,5.70
2019-03-13T05:10:58.003Z,5.70
2019-03-13T05:13:29.430Z,5.70
2019-03-13T05:16:00.533Z,5.80
2019-03-13T05:18:31.673Z,5.80
2019-03-13T05:21:03.743Z,5.90
2019-03-13T05:23:34.817Z,5.90
2019-03-13T05:26:05.989Z,5.90
2019-03-13T05:28:37.116Z,5.90
2019-03-13T05:31:08.320Z,6.00
2019-03-13T05:33:39.411Z,6.00
2019-03-13T05:36:10.426Z,5.90
2019-03-13T05:38:41.494Z,5.90
2019-03-13T05:41:12.603Z,5.90
2019-03-13T05:43:43.656Z,5.90
2019-03-13T05:46:14.700Z,6.00
2019-03-13T05:48:45.823Z,6.00
2019-03-13T05:51:16.886Z,6.00
2019-03-13T05:53:48.314Z,6.00
2019-03-13T05:56:19.499Z,6.00
2019-03-13T05:58:51.239Z,6.00
2019-03-13T06:01:22.665Z,6.00
2019-03-13T06:03:55.167Z,6.00
2019-03-13T06:06:26.251Z,6.00
2019-03-13T06:08:57.289Z,6.10
2019-03-13T06:11:28.347Z,6.00
2019-03-13T06:13:59.412Z,6.00
2019-03-13T06:16:30.487Z,6.00
2019-03-13T06:19:01.923Z,6.00
2019-03-13T06:21:32.963Z,6.00
2019-03-13T06:24:04.477Z,6.00
2019-03-13T06:26:35.437Z,6.00
2019-03-13T06:29:07.196Z,6.00
2019-03-13T06:31:38.547Z,6.00
2019-03-13T06:34:11.527Z,6.00
2019-03-13T06:36:42.351Z,6.00
2019-03-13T06:39:13.745Z,5.90
2019-03-13T06:41:44.735Z,5.90
2019-03-13T06:44:16.067Z,6.00
2019-03-13T06:46:47.200Z,5.90
2019-03-13T06:49:18.298Z,6.00
2019-03-13T06:51:49.260Z,6.00
2019-03-13T06:54:20.268Z,6.00
2019-03-13T06:56:52.398Z,6.00
2019-03-13T06:59:27.852Z,5.90
2019-03-13T07:02:16.530Z,5.80
2019-03-13T07:05:18.698Z,5.80
2019-03-13T07:08:10.298Z,5.70
2019-03-13T07:10:56.328Z,5.60
2019-03-13T07:13:36.496Z,5.60
2019-03-13T07:16:33.674Z,5.60
2019-03-13T07:19:24.643Z,5.60
2019-03-13T07:22:04.799Z,5.70
2019-03-13T07:24:54.801Z,5.70
2019-03-13T07:27:44.451Z,5.80
2019-03-13T07:30:43.529Z,5.80
2019-03-13T07:33:36.983Z,5.80
2019-03-13T07:36:22.869Z,5.80
2019-03-13T07:39:25.277Z,5.90
2019-03-13T07:42:04.933Z,5.90
2019-03-13T07:45:00.793Z,5.90
2019-03-13T07:47:59.857Z,6.00
2019-03-13T07:50:55.943Z,6.00
2019-03-13T07:53:54.994Z,6.00
2019-03-13T07:56:57.138Z,6.00
2019-03-13T07:59:44.833Z,6.00
2019-03-13T08:02:23.556Z,6.00
2019-03-13T08:05:01.246Z,6.10
2019-03-13T08:08:01.657Z,6.10
2019-03-13T08:10:47.405Z,6.10
2019-03-13T08:13:37.465Z,6.10
2019-03-13T08:16:21.440Z,6.10
2019-03-13T08:19:05.137Z,6.10
2019-03-13T08:21:56.778Z,6.00
2019-03-13T08:24:59.927Z,6.10
2019-03-13T08:27:42.807Z,6.10
2019-03-13T08:30:31.717Z,6.10
2019-03-13T08:33:17.263Z,6.10
2019-03-13T08:36:06.077Z,6.10
2019-03-13T08:38:44.714Z,6.10
2019-03-13T08:41:31.946Z,6.10
2019-03-13T08:44:20.112Z,6.20
2019-03-13T08:47:07.028Z,6.20
2019-03-13T08:49:55.818Z,6.30
2019-03-13T08:52:33.874Z,6.30
2019-03-13T08:55:24.058Z,6.30
2019-03-13T08:58:14.161Z,6.20
2019-03-13T09:01:07.302Z,6.10
2019-03-13T09:03:55.214Z,6.10
2019-03-13T09:06:48.942Z,6.00
2019-03-13T09:09:47.953Z,6.00
2019-03-13T09:12:32.330Z,5.90
2019-03-13T09:15:22.597Z,5.90
2019-03-13T09:18:12.657Z,5.80
2019-03-13T09:21:08.597Z,5.80
2019-03-13T09:23:51.048Z,5.90
2019-03-13T09:26:32.763Z,5.90
2019-03-13T09:29:29.002Z,5.90
2019-03-13T09:32:15.018Z,5.90
2019-03-13T09:35:08.211Z,6.00
2019-03-13T09:37:52.254Z,6.00
2019-03-13T09:40:42.328Z,6.10
2019-03-13T09:43:31.011Z,6.20
2019-03-13T09:46:24.522Z,6.30
2019-03-13T09:49:17.626Z,6.40
2019-03-13T09:51:53.284Z,6.40
2019-03-13T09:54:46.436Z,6.50
2019-03-13T09:57:27.914Z,6.50
2019-03-13T10:00:24.641Z,6.60
2019-03-13T10:03:13.347Z,6.60
2019-03-13T10:06:02.309Z,6.60
2019-03-13T10:08:58.463Z,6.70
2019-03-13T10:11:50.192Z,6.80
2019-03-13T10:14:26.850Z,6.90
2019-03-13T10:17:13.401Z,6.90
2019-03-13T10:20:18.743Z,6.80
2019-03-13T10:23:14.545Z,6.90
2019-03-13T10:26:03.829Z,7.00
2019-03-13T10:28:43.695Z,7.00
2019-03-13T10:31:31.667Z,7.00
2019-03-13T10:34:21.661Z,7.10
2019-03-13T10:37:07.184Z,7.20
2019-03-13T10:39:56.444Z,7.20
2019-03-13T10:42:37.947Z,7.20
2019-03-13T10:45:24.023Z,7.30
2019-03-13T10:48:15.536Z,7.30
2019-03-13T10:51:08.383Z,7.30
2019-03-13T10:53:49.258Z,7.40
2019-03-13T10:56:42.218Z,7.60
2019-03-13T10:59:38.717Z,7.70
2019-03-13T11:02:31.558Z,7.70
2019-03-13T11:05:30.623Z,7.70
2019-03-13T11:08:25.890Z,7.60
2019-03-13T11:11:09.119Z,7.50
2019-03-13T11:13:56.054Z,7.40
2019-03-13T11:16:49.125Z,7.40
2019-03-13T11:19:42.545Z,7.40
2019-03-13T11:22:38.644Z,7.50
2019-03-13T11:25:31.811Z,7.40
2019-03-13T11:28:09.252Z,7.40
2019-03-13T11:31:11.416Z,7.40
2019-03-13T11:34:09.092Z,7.40
2019-03-13T11:36:58.256Z,7.40
2019-03-13T11:39:47.524Z,7.40
2019-03-13T11:42:40.628Z,7.30
2019-03-13T11:45:34.031Z,7.40
2019-03-13T11:48:26.528Z,7.30
2019-03-13T11:51:19.858Z,7.20
2019-03-13T11:54:27.938Z,7.20
2019-03-13T11:57:33.476Z,7.20
2019-03-13T12:00:32.988Z,7.10
2019-03-13T12:03:32.454Z,7.10
2019-03-13T12:06:22.763Z,7.20
2019-03-13T12:09:04.463Z,7.20
2019-03-13T12:11:56.126Z,7.40
2019-03-13T12:14:52.805Z,7.50
2019-03-13T12:18:00.875Z,7.80
2019-03-13T12:20:47.874Z,7.80
2019-03-13T12:23:44.783Z,8.00
2019-03-13T12:26:20.893Z,8.10
2019-03-13T12:29:09.907Z,8.10
2019-03-13T12:32:02.947Z,8.10
2019-03-13T12:34:46.694Z,8.20
2019-03-13T12:37:24.359Z,8.20
2019-03-13T12:40:15.043Z,8.20
2019-03-13T12:43:13.373Z,8.20
2019-03-13T12:46:04.514Z,8.30
2019-03-13T12:48:52.215Z,8.30
2019-03-13T12:51:48.107Z,8.30
2019-03-13T12:54:38.661Z,8.30
2019-03-13T12:57:31.791Z,8.30
2019-03-13T13:00:13.615Z,8.30
2019-03-13T13:02:57.751Z,8.40
2019-03-13T13:05:51.039Z,8.40
2019-03-13T13:08:39.842Z,8.50
2019-03-13T13:11:27.992Z,8.70
2019-03-13T13:14:24.031Z,8.80
2019-03-13T13:17:17.576Z,9.00
2019-03-13T13:19:48.727Z,9.20
2019-03-13T13:22:19.718Z,9.50
2019-03-13T13:24:50.820Z,9.50
2019-03-13T13:27:22.657Z,9.50
2019-03-13T13:29:53.810Z,9.50
2019-03-13T13:32:25.258Z,9.50
2019-03-13T13:34:56.334Z,9.40
2019-03-13T13:37:28.074Z,9.40
2019-03-13T13:39:59.477Z,9.40
2019-03-13T13:42:30.566Z,9.40
2019-03-13T13:45:01.592Z,9.30
2019-03-13T13:47:34.538Z,9.30
2019-03-13T13:50:07.132Z,9.20
2019-03-13T13:52:38.208Z,9.10
2019-03-13T13:55:09.311Z,9.00
2019-03-13T13:57:40.339Z,8.90
2019-03-13T14:00:11.801Z,8.80
2019-03-13T14:02:42.854Z,8.70
2019-03-13T14:05:14.258Z,8.60
2019-03-13T14:07:45.332Z,8.70
2019-03-13T14:10:16.680Z,8.70
2019-03-13T14:12:48.738Z,8.80
2019-03-13T14:15:19.702Z,8.90
2019-03-13T14:17:51.060Z,9.00
2019-03-13T14:20:22.822Z,9.10
2019-03-13T14:22:55.512Z,9.10
2019-03-13T14:25:26.544Z,9.10
2019-03-13T14:27:57.671Z,9.10
2019-03-13T14:30:28.789Z,9.10
2019-03-13T14:32:59.822Z,9.00
2019-03-13T14:35:31.538Z,8.80
2019-03-13T14:38:02.629Z,8.70
2019-03-13T14:40:33.991Z,8.60
2019-03-13T14:43:05.968Z,8.60
2019-03-13T14:45:37.010Z,8.80
2019-03-13T14:48:08.130Z,8.90
2019-03-13T14:50:39.145Z,9.00
2019-03-13T14:53:10.478Z,9.10
2019-03-13T14:55:41.537Z,9.00
2019-03-13T14:58:12.824Z,8.80
2019-03-13T15:00:43.955Z,8.70
2019-03-13T15:03:15.365Z,8.80
2019-03-13T15:05:46.675Z,9.10
2019-03-13T15:08:18.050Z,9.20
2019-03-13T15:10:49.450Z,9.00
2019-03-13T15:13:20.835Z,9.10
2019-03-13T15:15:51.886Z,9.20
2019-03-13T15:18:22.934Z,9.30
2019-03-13T15:20:54.233Z,9.20
2019-03-13T15:23:26.255Z,9.20
2019-03-13T15:25:57.329Z,9.40
2019-03-13T15:28:28.703Z,9.40
2019-03-13T15:30:59.753Z,9.30
2019-03-13T15:33:31.138Z,9.20
2019-03-13T15:36:02.619Z,9.00
2019-03-13T15:38:33.642Z,8.90
2019-03-13T15:41:05.906Z,8.80
2019-03-13T15:43:36.999Z,9.00
2019-03-13T15:46:08.537Z,9.00
2019-03-13T15:48:39.628Z,9.10
2019-03-13T15:51:10.741Z,9.20
2019-03-13T15:53:41.763Z,9.40
2019-03-13T15:56:12.780Z,9.30
2019-03-13T15:58:43.922Z,9.20
2019-03-13T16:01:15.053Z,9.10
2019-03-13T16:03:46.113Z,8.90
2019-03-13T16:06:17.254Z,8.80
2019-03-13T16:08:48.593Z,8.80
2019-03-13T16:11:19.694Z,8.80
2019-03-13T16:13:50.707Z,8.80
2019-03-13T16:16:22.010Z,8.90
2019-03-13T16:18:53.088Z,9.00
2019-03-13T16:21:24.192Z,9.00
2019-03-13T16:23:55.632Z,9.00
2019-03-13T16:26:27.012Z,8.90
2019-03-13T16:28:58.090Z,8.90
2019-03-13T16:31:29.033Z,8.90
2019-03-13T16:34:00.049Z,8.90
2019-03-13T16:36:31.238Z,8.50
2019-03-13T16:39:02.285Z,8.10
2019-03-13T16:41:35.377Z,8.00
2019-03-13T16:44:09.329Z,7.90
2019-03-13T16:46:40.819Z,8.00
2019-03-13T16:49:11.870Z,8.00
2019-03-13T16:51:42.812Z,8.00
2019-03-13T16:54:14.255Z,7.90
2019-03-13T16:56:45.363Z,7.80
2019-03-13T16:59:16.646Z,7.70
2019-03-13T17:01:47.693Z,7.70
2019-03-13T17:04:18.693Z,7.70
2019-03-13T17:06:49.836Z,7.70
2019-03-13T17:09:20.931Z,7.70
2019-03-13T17:11:52.255Z,7.80
2019-03-13T17:14:23.293Z,7.80
2019-03-13T17:16:54.253Z,7.90
2019-03-13T17:19:25.845Z,7.90
2019-03-13T17:21:57.038Z,8.00
2019-03-13T17:24:28.005Z,8.00
2019-03-13T17:26:59.316Z,8.00
2019-03-13T17:29:30.705Z,8.00
2019-03-13T17:32:02.719Z,8.00
2019-03-13T17:34:33.673Z,8.10
2019-03-13T17:37:04.715Z,8.10
2019-03-13T17:39:35.757Z,8.10
2019-03-13T17:42:06.881Z,8.10
2019-03-13T17:44:38.211Z,8.20
2019-03-13T17:47:09.277Z,8.10
2019-03-13T17:49:40.683Z,8.20
2019-03-13T17:52:12.125Z,8.10
2019-03-13T17:54:43.527Z,8.10
2019-03-13T17:57:14.659Z,8.10
2019-03-13T17:59:45.752Z,8.20
2019-03-13T18:02:16.782Z,8.10
2019-03-13T18:04:48.194Z,8.20
2019-03-13T18:07:19.524Z,8.20
2019-03-13T18:09:50.534Z,8.20
2019-03-13T18:12:21.532Z,8.30
2019-03-13T18:14:53.329Z,8.30
2019-03-13T18:17:24.347Z,8.40
2019-03-13T18:19:55.352Z,8.40
2019-03-13T18:22:26.341Z,8.40
2019-03-13T18:24:57.414Z,8.40
2019-03-13T18:27:40.559Z,8.40
2019-03-13T18:30:16.841Z,8.40
2019-03-13T18:32:48.266Z,8.40
2019-03-13T18:35:19.506Z,8.40
2019-03-13T18:37:51.037Z,8.50
2019-03-13T18:40:22.078Z,8.50
2019-03-13T18:42:53.330Z,8.50
2019-03-13T18:45:25.176Z,8.50
2019-03-13T18:47:56.856Z,8.50
2019-03-13T18:50:28.066Z,8.60
2019-03-13T18:52:59.511Z,8.50
2019-03-13T18:55:30.611Z,8.50
2019-03-13T18:58:01.738Z,8.50
2019-03-13T19:00:33.279Z,8.50
2019-03-13T19:03:04.566Z,8.50
2019-03-13T19:05:37.360Z,8.50
2019-03-13T19:08:08.563Z,8.50
2019-03-13T19:10:40.645Z,8.50
2019-03-13T19:13:11.701Z,8.50
2019-03-13T19:15:42.772Z,8.50
2019-03-13T19:18:13.882Z,8.50
2019-03-13T19:20:45.316Z,8.50
2019-03-13T19:23:16.407Z,8.60
2019-03-13T19:25:47.373Z,8.50
2019-03-13T19:28:18.320Z,8.50
2019-03-13T19:30:49.301Z,8.50
2019-03-13T19:33:20.290Z,8.50
2019-03-13T19:35:51.293Z,8.50
2019-03-13T19:38:22.325Z,8.50
2019-03-13T19:40:54.023Z,8.40
2019-03-13T19:43:26.386Z,8.40
2019-03-13T19:45:57.865Z,8.40
2019-03-13T19:48:28.984Z,8.40
2019-03-13T19:51:00.443Z,8.30
2019-03-13T19:53:31.816Z,8.40
2019-03-13T19:56:03.213Z,8.40
2019-03-13T19:58:34.439Z,8.40
2019-03-13T20:01:05.714Z,8.40
2019-03-13T20:03:36.795Z,8.30
2019-03-13T20:06:07.858Z,8.30
2019-03-13T20:08:39.026Z,8.30
2019-03-13T20:11:10.470Z,8.20
2019-03-13T20:13:41.603Z,8.30
2019-03-13T20:16:12.658Z,8.20
2019-03-13T20:18:43.606Z,8.20
2019-03-13T20:21:14.652Z,8.20
2019-03-13T20:23:45.720Z,8.20
2019-03-13T20:26:16.855Z,8.30
2019-03-13T20:28:47.966Z,8.20
2019-03-13T20:31:19.009Z,8.20
2019-03-13T20:33:50.047Z,8.20
2019-03-13T20:36:21.472Z,8.20
2019-03-13T20:38:52.752Z,8.20
2019-03-13T20:41:24.314Z,8.20
2019-03-13T20:43:55.752Z,8.20
2019-03-13T20:46:26.866Z,8.20
2019-03-13T20:48:58.006Z,8.10
2019-03-13T20:51:28.966Z,8.20
2019-03-13T20:53:59.935Z,8.20
2019-03-13T20:56:30.969Z,8.00
2019-03-13T20:59:02.119Z,8.00
2019-03-13T21:01:33.184Z,8.00
2019-03-13T21:04:07.375Z,8.00
2019-03-13T21:06:37.672Z,7.90
2019-03-13T21:09:08.844Z,8.00
2019-03-13T21:11:41.946Z,8.00
2019-03-13T21:14:13.056Z,8.00
2019-03-13T21:16:44.084Z,7.90
2019-03-13T21:19:15.546Z,7.90
2019-03-13T21:21:47.112Z,8.00
2019-03-13T21:24:18.280Z,7.90
2019-03-13T21:26:49.567Z,8.00
2019-03-13T21:29:20.644Z,7.90
2019-03-13T21:31:51.705Z,7.90
2019-03-13T21:34:24.197Z,7.90
2019-03-13T21:36:55.234Z,7.90
2019-03-13T21:39:26.239Z,7.90
2019-03-13T21:41:57.310Z,7.80
2019-03-13T21:44:28.359Z,7.80
2019-03-13T21:46:59.397Z,7.80
2019-03-13T21:49:30.348Z,7.80
2019-03-13T21:52:01.530Z,7.70
2019-03-13T21:54:34.095Z,7.70
2019-03-13T21:57:05.431Z,7.70
2019-03-13T21:59:36.511Z,7.70
2019-03-13T22:02:09.047Z,7.60
2019-03-13T22:04:40.411Z,7.60
2019-03-13T22:07:11.425Z,7.60
2019-03-13T22:09:42.428Z,7.60
2019-03-13T22:12:13.342Z,7.50
2019-03-13T22:14:44.343Z,7.60
2019-03-13T22:17:15.585Z,7.60
2019-03-13T22:19:47.472Z,7.60
2019-03-13T22:22:18.393Z,7.50
2019-03-13T22:24:49.384Z,7.50
2019-03-13T22:27:21.076Z,7.60
2019-03-13T22:29:52.056Z,7.60
2019-03-13T22:32:23.351Z,7.60
2019-03-13T22:34:54.302Z,7.60
2019-03-13T22:37:25.706Z,7.60
2019-03-13T22:39:58.399Z,7.60
2019-03-13T22:42:30.803Z,7.70
2019-03-13T22:45:02.246Z,7.70
2019-03-13T22:47:42.673Z,7.70
2019-03-13T22:50:10.294Z,7.70
2019-03-13T22:52:41.297Z,7.80
2019-03-13T22:55:12.310Z,7.80
2019-03-13T22:57:43.246Z,7.80
2019-03-13T23:00:47.309Z,7.80
2019-03-13T23:03:20.543Z,7.80
2019-03-13T23:05:52.196Z,7.80
2019-03-13T23:08:23.534Z,7.80
2019-03-13T23:10:54.957Z,7.80
2019-03-13T23:13:26.670Z,7.80
2019-03-13T23:15:57.646Z,7.80
2019-03-13T23:18:28.578Z,7.80
2019-03-13T23:20:59.499Z,7.80
2019-03-13T23:23:30.554Z,7.90
2019-03-13T23:26:01.897Z,7.90
2019-03-13T23:28:33.217Z,7.90
2019-03-13T23:31:04.310Z,7.90
2019-03-13T23:33:35.334Z,7.90
2019-03-13T23:36:06.484Z,7.90
2019-03-13T23:38:38.161Z,7.80
2019-03-13T23:41:09.150Z,7.90
2019-03-13T23:43:40.394Z,7.90
2019-03-13T23:46:11.564Z,7.90
2019-03-13T23:48:42.885Z,7.90
2019-03-13T23:51:14.128Z,7.90
2019-03-13T23:53:45.054Z,7.90
2019-03-13T23:56:15.961Z,7.90
2019-03-13T23:58:47.278Z,7.90
